Weather History for Coleman, TX

Change the Weather History Date:

Monday, April 29, 2013

  Actual Average (KABI) Record (KABI)
Temperature  
Mean Temperature 71 °F 68 °F  
Max Temperature 88 °F 81 °F 99 °F (1928)
Min Temperature 54 °F 56 °F 37 °F (1998)
Degree Days  
Heating Degree Days 0 2  
Month to date heating degree days 111  
Since 1 July heating degree days 2542  
Cooling Degree Days 6 5  
Month to date cooling degree days 93  
Year to date cooling degree days 127  
Growing Degree Days 21 (Base 50)    
Moisture  
Dew Point 49 °F    
Average Humidity 45    
Maximum Humidity 76    
Minimum Humidity 20    
Precipitation  
Precipitation 0.00 in 0.07 in 1.53 in (1954)
Month to date precipitation 1.56  
Year to date precipitation 5.68  
Sea Level Pressure  
Sea Level Pressure 29.86 in    
Wind  
Wind Speed 7 mph (South)    
Max Wind Speed 21 mph    
Max Gust Speed 26 mph    
Visibility 10 miles    
Events      
T = Trace of Precipitation, MM = Missing Value Source: NWS Daily Summary

Daily Weather History Graph

Daily Weather History Graph

Search for Another Location

Airport:

Trip Planner

Search our weather history database for the weather conditions in past years. The results will help you decide how hot, cold, wet, or windy it might be!

Date:

Astronomy

Apr. 29, 2013 Rise Set
Actual Time 6:53 AM CDT 8:16 PM CDT
Civil Twilight 6:27 AM CDT 8:42 PM CDT
Nautical Twilight 5:56 AM CDT 9:13 PM CDT
Astronomical Twilight 5:24 AM CDT 9:45 PM CDT
Moon No Moon Rise 10:21 AM CDT (4/29)
Length of Visible Light 14h 14m
Length of Day
13h 23m
Waning Gibbous, 80% of the Moon is Illuminated
Apr 29
Waning Gibbous
May 2
Last Quarter
May 9
New
May 17
First Quarter
May 24
Full

Hourly Weather History & Observations

Time (CDT) Temp. Dew Point Humidity Pressure Visibility Wind Dir Wind Speed Gust Speed Precip Events Conditions
12:15 AM 72.5 °F 51.8 °F 48% 29.90 in 10.0 mi South 10.4 mph - N/A   Clear
12:35 AM 71.8 °F 52.2 °F 50% 29.91 in 10.0 mi South 9.2 mph - N/A   Clear
12:55 AM 71.2 °F 53.1 °F 53% 29.92 in 10.0 mi South 9.2 mph - N/A   Clear
1:15 AM 70.5 °F 53.6 °F 55% 29.91 in 10.0 mi South 6.9 mph - N/A   Clear
1:35 AM 69.1 °F 53.6 °F 58% 29.90 in 10.0 mi South 5.8 mph - N/A   Clear
1:55 AM 68.4 °F 54.1 °F 60% 29.91 in 10.0 mi WSW 4.6 mph - N/A   Clear
2:15 AM 67.1 °F 53.6 °F 62% 29.91 in 10.0 mi WSW 3.5 mph - N/A   Clear
2:35 AM 66.7 °F 51.1 °F 57% 29.91 in 10.0 mi Calm Calm - N/A   Clear
2:55 AM 66.2 °F 50.0 °F 56% 29.90 in 10.0 mi Calm Calm - N/A   Clear
3:15 AM 64.4 °F 51.4 °F 63% 29.89 in 10.0 mi SSW 3.5 mph - N/A   Clear
3:35 AM 63.5 °F 49.8 °F 61% 29.89 in 10.0 mi Calm Calm - N/A   Clear
3:55 AM 63.0 °F 49.1 °F 61% 29.89 in 10.0 mi Calm Calm - N/A   Clear
4:15 AM 61.9 °F 48.7 °F 62% 29.89 in 10.0 mi Calm Calm - N/A   Clear
4:35 AM 60.8 °F 48.4 °F 64% 29.89 in 10.0 mi Calm Calm - N/A   Clear
4:55 AM 60.8 °F 48.6 °F 64% 29.89 in 10.0 mi Calm Calm - N/A   Clear
5:15 AM 60.8 °F 48.0 °F 63% 29.89 in 10.0 mi Calm Calm - N/A   Clear
5:55 AM 56.3 °F 46.8 °F 70% 29.89 in 10.0 mi Calm Calm - N/A   Clear
6:15 AM 55.8 °F 46.9 °F 72% 29.89 in 10.0 mi Calm Calm - N/A   Clear
6:35 AM 55.2 °F 46.6 °F 73% 29.89 in 10.0 mi Calm Calm - N/A   Clear
6:55 AM 55.4 °F 47.5 °F 75% 29.89 in 10.0 mi WNW 5.8 mph - N/A   Clear
7:15 AM 54.5 °F 46.9 °F 76% 29.90 in 10.0 mi West 4.6 mph - N/A   Clear
7:35 AM 55.9 °F 47.8 °F 74% 29.91 in 10.0 mi Calm Calm - N/A   Clear
7:55 AM 59.5 °F 49.3 °F 69% 29.92 in 10.0 mi SSE 3.5 mph - N/A   Clear
8:15 AM 60.3 °F 49.3 °F 67% 29.93 in 10.0 mi Calm Calm - N/A   Clear
8:35 AM 65.3 °F 50.2 °F 58% 29.93 in 10.0 mi SSW 6.9 mph - N/A   Clear
8:55 AM 69.1 °F 49.8 °F 50% 29.93 in 10.0 mi SSW 8.1 mph - N/A   Clear
9:15 AM 70.7 °F 49.1 °F 46% 29.93 in 10.0 mi SSW 8.1 mph - N/A   Clear
9:35 AM 72.9 °F 50.0 °F 44% 29.93 in 10.0 mi SW 10.4 mph - N/A   Clear
9:55 AM 75.2 °F 51.1 °F 43% 29.93 in 10.0 mi SW 12.7 mph 16.1 mph N/A   Clear
10:15 AM 76.1 °F 52.7 °F 44% 29.92 in 10.0 mi SW 9.2 mph 20.7 mph N/A   Clear
10:35 AM 77.2 °F 53.1 °F 43% 29.92 in 10.0 mi SSW 16.1 mph - N/A   Clear
10:55 AM 77.5 °F 53.4 °F 43% 29.92 in 10.0 mi WSW 13.8 mph 20.7 mph N/A   Clear
11:15 AM 78.6 °F 53.2 °F 41% 29.92 in 10.0 mi WSW 12.7 mph 19.6 mph N/A   Clear
11:35 AM 80.2 °F 52.9 °F 39% 29.91 in 10.0 mi SSW 11.5 mph 16.1 mph N/A   Clear
11:55 AM 79.7 °F 52.2 °F 38% 29.90 in 10.0 mi WSW 5.8 mph 16.1 mph N/A   Clear
12:15 PM 81.7 °F 52.0 °F 36% 29.90 in 10.0 mi SSW 4.6 mph - N/A   Clear
12:35 PM 82.4 °F 50.0 °F 32% 29.89 in 10.0 mi SW 4.6 mph - N/A   Clear
12:55 PM 85.1 °F 46.9 °F 26% 29.88 in 10.0 mi SW 5.8 mph - N/A   Clear
1:15 PM 84.2 °F 48.7 °F 29% 29.88 in 10.0 mi South 6.9 mph 16.1 mph N/A   Clear
1:35 PM 86.5 °F 48.6 °F 27% 29.87 in 10.0 mi SW 9.2 mph - N/A   Clear
1:55 PM 85.8 °F 45.0 °F 24% 29.86 in 10.0 mi SE 4.6 mph 16.1 mph N/A   Scattered Clouds
2:15 PM 87.3 °F 43.2 °F 21% 29.85 in 10.0 mi South 12.7 mph 23.0 mph N/A   Clear
2:35 PM 85.1 °F 43.9 °F 24% 29.85 in 10.0 mi SSE 13.8 mph 19.6 mph N/A   Scattered Clouds
2:55 PM 86.4 °F 44.8 °F 23% 29.84 in 10.0 mi South 4.6 mph - N/A   Scattered Clouds
3:15 PM 86.0 °F 41.2 °F 21% 29.83 in 10.0 mi South 8.1 mph - N/A   Scattered Clouds
3:35 PM 86.4 °F 43.5 °F 22% 29.82 in 10.0 mi South 8.1 mph 19.6 mph N/A   Scattered Clouds
3:55 PM 87.1 °F 44.4 °F 23% 29.81 in 10.0 mi South 10.4 mph 17.3 mph N/A   Clear
4:15 PM 87.8 °F 41.4 °F 20% 29.80 in 10.0 mi South 9.2 mph 17.3 mph N/A   Scattered Clouds
4:35 PM 87.8 °F 42.3 °F 20% 29.78 in 10.0 mi SE 9.2 mph - N/A   Scattered Clouds
4:55 PM 88.0 °F 41.5 °F 20% 29.77 in 10.0 mi SSW 8.1 mph 17.3 mph N/A   Scattered Clouds
5:15 PM 87.1 °F 43.0 °F 21% 29.77 in 10.0 mi SE 6.9 mph 16.1 mph N/A   Clear
5:35 PM 87.6 °F 43.7 °F 22% 29.77 in 10.0 mi SE 5.8 mph - N/A   Clear
5:55 PM 86.9 °F 44.4 °F 23% 29.77 in 10.0 mi SE 6.9 mph - N/A   Clear
6:15 PM 85.5 °F 44.2 °F 24% 29.77 in 10.0 mi South 10.4 mph - N/A   Clear
6:35 PM 86.0 °F 44.2 °F 23% 29.76 in 10.0 mi South 11.5 mph - N/A   Clear
6:55 PM 84.9 °F 44.2 °F 24% 29.76 in 10.0 mi South 5.8 mph - N/A   Clear
7:15 PM 84.4 °F 43.9 °F 24% 29.76 in 10.0 mi SSE 8.1 mph - N/A   Clear
7:35 PM 82.6 °F 44.2 °F 26% 29.76 in 10.0 mi SSE 8.1 mph - N/A   Clear
7:55 PM 80.4 °F 44.6 °F 28% 29.77 in 10.0 mi SSE 6.9 mph - N/A   Clear
8:15 PM 78.8 °F 45.5 °F 31% 29.77 in 10.0 mi SSE 5.8 mph - N/A   Clear
8:35 PM 76.5 °F 45.9 °F 34% 29.78 in 10.0 mi SSE 15.0 mph 21.9 mph N/A   Clear
8:55 PM 76.8 °F 54.5 °F 46% 29.79 in 10.0 mi SSE 15.0 mph 20.7 mph N/A   Clear
9:15 PM 75.9 °F 55.0 °F 48% 29.80 in 10.0 mi SSE 12.7 mph 20.7 mph N/A   Clear
9:35 PM 74.8 °F 55.2 °F 50% 29.81 in 10.0 mi SSE 17.3 mph 24.2 mph N/A   Clear
9:55 PM 73.9 °F 55.4 °F 52% 29.82 in 10.0 mi SE 15.0 mph 23.0 mph N/A   Clear
10:15 PM 73.4 °F 55.8 °F 54% 29.83 in 10.0 mi SSE 13.8 mph 20.7 mph N/A   Clear
10:35 PM 72.7 °F 56.5 °F 57% 29.84 in 10.0 mi SSE 12.7 mph 19.6 mph N/A   Clear
10:55 PM 72.0 °F 58.1 °F 62% 29.84 in 10.0 mi SSE 20.7 mph 26.5 mph N/A   Clear
11:15 PM 70.7 °F 58.3 °F 65% 29.84 in 10.0 mi SSE 16.1 mph 23.0 mph N/A   Clear
11:35 PM 69.3 °F 58.3 °F 68% 29.84 in 10.0 mi South 13.8 mph 18.4 mph N/A   Clear
11:55 PM 68.7 °F 57.7 °F 68% 29.83 in 10.0 mi South 13.8 mph 19.6 mph N/A   Clear